createdAt,value
2023-05-01T00:01:48.397Z,49.20
2023-05-01T00:04:17.172Z,49.10
2023-05-01T00:06:47.383Z,49.10
2023-05-01T00:09:16.477Z,49.10
2023-05-01T00:11:46.047Z,49.20
2023-05-01T00:14:14.418Z,49.30
2023-05-01T00:16:43.075Z,49.30
2023-05-01T00:19:12.776Z,49.30
2023-05-01T00:21:41.565Z,49.40
2023-05-01T00:24:11.412Z,49.50
2023-05-01T00:26:39.786Z,49.50
2023-05-01T00:29:08.745Z,49.50
2023-05-01T00:31:37.655Z,49.40
2023-05-01T00:34:06.213Z,49.40
2023-05-01T00:36:34.774Z,49.40
2023-05-01T00:39:03.409Z,49.40
2023-05-01T00:41:33.153Z,49.40
2023-05-01T00:44:01.587Z,49.50
2023-05-01T00:46:31.154Z,49.50
2023-05-01T00:48:59.989Z,49.50
2023-05-01T00:51:31.330Z,49.70
2023-05-01T00:54:01.514Z,49.60
2023-05-01T00:56:30.556Z,49.70
2023-05-01T00:59:02.214Z,49.60
2023-05-01T01:01:31.725Z,50.30
2023-05-01T01:04:00.343Z,49.70
2023-05-01T01:06:37.554Z,49.70
2023-05-01T01:09:24.824Z,49.80
2023-05-01T01:12:05.045Z,49.90
2023-05-01T01:14:43.872Z,49.90
2023-05-01T01:17:27.013Z,50.60
2023-05-01T01:20:19.943Z,49.90
2023-05-01T01:22:55.478Z,49.90
2023-05-01T01:26:01.580Z,49.90
2023-05-01T01:29:23.715Z,50.00
2023-05-01T01:32:05.767Z,50.20
2023-05-01T01:34:37.753Z,50.10
2023-05-01T01:37:13.813Z,50.10
2023-05-01T01:39:49.961Z,50.10
2023-05-01T01:42:23.128Z,50.10
2023-05-01T01:44:56.040Z,50.10
2023-05-01T01:47:29.337Z,50.10
2023-05-01T01:50:02.458Z,50.10
2023-05-01T01:52:32.865Z,50.20
2023-05-01T01:55:07.661Z,50.20
2023-05-01T01:57:37.953Z,50.30
2023-05-01T02:00:08.964Z,50.30
2023-05-01T02:02:42.712Z,50.40
2023-05-01T02:05:16.603Z,50.40
2023-05-01T02:07:48.785Z,50.50
2023-05-01T02:10:19.362Z,50.50
2023-05-01T02:12:49.816Z,50.50
2023-05-01T02:15:20.382Z,50.60
2023-05-01T02:17:51.327Z,50.70
2023-05-01T02:20:22.738Z,50.80
2023-05-01T02:22:53.725Z,50.90
2023-05-01T02:25:22.414Z,50.90
2023-05-01T02:27:58.019Z,51.00
2023-05-01T02:30:26.436Z,51.00
2023-05-01T02:32:55.164Z,51.00
2023-05-01T02:35:25.050Z,51.00
2023-05-01T02:37:53.711Z,51.60
2023-05-01T02:40:22.514Z,51.00
2023-05-01T02:42:53.240Z,51.00
2023-05-01T02:45:26.776Z,51.20
2023-05-01T02:48:00.061Z,51.20
2023-05-01T02:50:31.418Z,51.20
2023-05-01T02:53:00.397Z,51.20
2023-05-01T02:55:45.982Z,51.20
2023-05-01T02:58:17.805Z,51.20
2023-05-01T03:00:47.181Z,51.40
2023-05-01T03:03:15.872Z,51.40
2023-05-01T03:05:45.891Z,51.40
2023-05-01T03:08:14.395Z,51.40
2023-05-01T03:10:43.695Z,51.50
2023-05-01T03:13:12.676Z,51.50
2023-05-01T03:15:41.336Z,51.60
2023-05-01T03:18:10.033Z,51.60
2023-05-01T03:20:38.557Z,51.60
2023-05-01T03:23:09.230Z,51.70
2023-05-01T03:25:38.888Z,51.80
2023-05-01T03:28:07.418Z,51.80
2023-05-01T03:30:36.317Z,51.80
2023-05-01T03:33:05.150Z,51.80
2023-05-01T03:35:34.953Z,51.90
2023-05-01T03:38:08.803Z,51.80
2023-05-01T03:40:56.011Z,52.00
2023-05-01T03:43:42.992Z,52.00
2023-05-01T03:46:21.896Z,51.90
2023-05-01T03:48:50.657Z,52.00
2023-05-01T03:51:19.425Z,52.00
2023-05-01T03:53:49.706Z,52.10
2023-05-01T03:56:18.783Z,52.00
2023-05-01T03:58:47.433Z,52.00
2023-05-01T04:01:15.903Z,52.00
2023-05-01T04:03:46.612Z,52.10
2023-05-01T04:06:17.273Z,52.10
2023-05-01T04:08:46.134Z,52.10
2023-05-01T04:11:16.034Z,52.10
2023-05-01T04:13:44.578Z,52.10
2023-05-01T04:16:13.800Z,52.10
2023-05-01T04:18:42.611Z,52.10
2023-05-01T04:21:11.309Z,52.10
2023-05-01T04:23:41.630Z,52.10
2023-05-01T04:26:10.360Z,52.20
2023-05-01T04:28:40.291Z,52.30
2023-05-01T04:31:11.509Z,52.30
2023-05-01T04:33:39.990Z,52.30
2023-05-01T04:36:08.896Z,52.40
2023-05-01T04:38:38.196Z,52.40
2023-05-01T04:41:07.299Z,52.30
2023-05-01T04:43:35.860Z,52.40
2023-05-01T04:46:06.653Z,52.30
2023-05-01T04:48:35.933Z,52.30
2023-05-01T04:51:04.933Z,52.30
2023-05-01T04:53:36.510Z,52.40
2023-05-01T04:56:07.364Z,52.40
2023-05-01T04:58:35.931Z,52.50
2023-05-01T05:01:12.100Z,52.50
2023-05-01T05:03:41.372Z,52.60
2023-05-01T05:06:11.656Z,52.60
2023-05-01T05:08:40.213Z,52.60
2023-05-01T05:11:12.333Z,52.70
2023-05-01T05:13:57.246Z,52.70
2023-05-01T05:16:28.206Z,52.80
2023-05-01T05:18:57.951Z,52.80
2023-05-01T05:21:28.875Z,53.00
2023-05-01T05:23:59.228Z,53.00
2023-05-01T05:26:28.875Z,53.00
2023-05-01T05:29:00.332Z,53.10
2023-05-01T05:31:30.716Z,53.80
2023-05-01T05:33:59.320Z,53.20
2023-05-01T05:36:28.768Z,53.20
2023-05-01T05:38:57.381Z,53.30
2023-05-01T05:41:27.101Z,53.30
2023-05-01T05:43:59.920Z,53.30
2023-05-01T05:46:31.258Z,53.30
2023-05-01T05:48:59.926Z,53.30
2023-05-01T05:51:29.622Z,53.30
2023-05-01T05:53:58.357Z,53.40
2023-05-01T05:56:27.193Z,53.40
2023-05-01T05:58:55.732Z,53.40
2023-05-01T06:01:24.438Z,53.40
2023-05-01T06:03:54.540Z,53.40
2023-05-01T06:06:25.118Z,53.40
2023-05-01T06:08:53.693Z,53.50
2023-05-01T06:11:23.247Z,53.50
2023-05-01T06:13:51.996Z,53.50
2023-05-01T06:16:20.613Z,53.50
2023-05-01T06:18:49.705Z,53.70
2023-05-01T06:21:19.929Z,53.70
2023-05-01T06:23:48.416Z,53.90
2023-05-01T06:26:41.181Z,53.70
2023-05-01T06:29:09.645Z,53.80
2023-05-01T06:31:38.134Z,53.80
2023-05-01T06:34:06.635Z,53.80
2023-05-01T06:36:55.951Z,53.80
2023-05-01T06:39:25.169Z,53.90
2023-05-01T06:41:54.494Z,53.90
2023-05-01T06:44:32.957Z,53.90
2023-05-01T06:47:03.501Z,53.90
2023-05-01T06:49:31.904Z,53.90
2023-05-01T06:52:02.272Z,54.00
2023-05-01T06:54:31.053Z,54.00
2023-05-01T06:56:59.762Z,54.10
2023-05-01T06:59:28.144Z,54.00
2023-05-01T07:01:56.637Z,54.00
2023-05-01T07:04:25.246Z,53.90
2023-05-01T07:06:53.734Z,54.00
2023-05-01T07:09:23.809Z,54.00
2023-05-01T07:11:52.146Z,53.80
2023-05-01T07:14:20.514Z,53.80
2023-05-01T07:16:49.171Z,53.90
2023-05-01T07:19:17.577Z,54.00
2023-05-01T07:21:45.935Z,53.90
2023-05-01T07:24:14.395Z,54.00
2023-05-01T07:26:44.614Z,53.90
2023-05-01T07:29:13.293Z,54.00
2023-05-01T07:31:41.862Z,53.90
2023-05-01T07:34:10.222Z,53.90
2023-05-01T07:36:39.051Z,53.80
2023-05-01T07:39:07.750Z,53.80
2023-05-01T07:41:36.212Z,53.70
2023-05-01T07:44:06.136Z,53.60
2023-05-01T07:46:35.273Z,53.40
2023-05-01T07:49:04.310Z,53.50
2023-05-01T07:51:33.330Z,53.40
2023-05-01T07:54:04.764Z,54.00
2023-05-01T07:56:33.423Z,53.90
2023-05-01T07:59:02.028Z,53.10
2023-05-01T08:01:34.183Z,53.10
2023-05-01T08:04:02.905Z,53.00
2023-05-01T08:06:32.862Z,53.10
2023-05-01T08:09:01.200Z,53.00
2023-05-01T08:11:29.894Z,53.00
2023-05-01T08:13:58.284Z,53.00
2023-05-01T08:16:26.891Z,53.00
2023-05-01T08:18:56.731Z,53.00
2023-05-01T08:21:25.085Z,52.80
2023-05-01T08:23:56.216Z,52.70
2023-05-01T08:26:24.968Z,52.70
2023-05-01T08:28:53.403Z,52.70
2023-05-01T08:31:22.747Z,52.70
2023-05-01T08:33:51.418Z,53.00
2023-05-01T08:36:21.534Z,52.60
2023-05-01T08:38:50.381Z,52.50
2023-05-01T08:41:23.800Z,52.70
2023-05-01T08:43:52.696Z,52.70
2023-05-01T08:46:28.041Z,52.60
2023-05-01T08:48:59.490Z,52.60
2023-05-01T08:51:33.340Z,52.50
2023-05-01T08:54:04.837Z,52.60
2023-05-01T08:56:33.724Z,52.50
2023-05-01T08:59:05.267Z,52.50
2023-05-01T09:01:35.065Z,52.60
2023-05-01T09:04:05.064Z,52.50
2023-05-01T09:06:34.957Z,52.40
2023-05-01T09:09:03.682Z,52.60
2023-05-01T09:11:32.181Z,52.70
2023-05-01T09:14:05.425Z,52.50
2023-05-01T09:16:33.997Z,52.40
2023-05-01T09:19:02.462Z,52.30
2023-05-01T09:21:31.990Z,52.30
2023-05-01T09:24:02.869Z,52.30
2023-05-01T09:26:31.600Z,52.10
2023-05-01T09:29:00.573Z,52.00
2023-05-01T09:31:32.386Z,51.90
2023-05-01T09:34:03.628Z,51.80
2023-05-01T09:36:34.239Z,51.90
2023-05-01T09:39:04.611Z,51.80
2023-05-01T09:41:33.945Z,51.80
2023-05-01T09:44:02.736Z,51.90
2023-05-01T09:46:43.765Z,51.70
2023-05-01T09:49:12.230Z,51.50
2023-05-01T09:51:40.729Z,51.70
2023-05-01T09:54:20.879Z,51.60
2023-05-01T09:56:51.055Z,51.00
2023-05-01T09:59:21.726Z,51.20
2023-05-01T10:01:52.713Z,51.30
2023-05-01T10:04:32.023Z,51.00
2023-05-01T10:07:02.599Z,50.40
2023-05-01T10:09:32.841Z,51.20
2023-05-01T10:12:01.210Z,50.50
2023-05-01T10:14:30.489Z,50.10
2023-05-01T10:16:59.308Z,50.00
2023-05-01T10:19:27.920Z,50.00
2023-05-01T10:21:56.543Z,50.10
2023-05-01T10:24:24.873Z,50.10
2023-05-01T10:26:55.824Z,50.10
2023-05-01T10:29:25.606Z,49.70
2023-05-01T10:31:54.149Z,49.80
2023-05-01T10:34:28.165Z,49.80
2023-05-01T10:37:02.091Z,49.70
2023-05-01T10:39:35.174Z,49.40
2023-05-01T10:42:06.299Z,49.40
2023-05-01T10:44:35.882Z,49.30
2023-05-01T10:47:48.029Z,49.40
2023-05-01T10:50:17.972Z,48.80
2023-05-01T10:53:18.779Z,49.20
2023-05-01T10:55:49.493Z,48.30
2023-05-01T10:59:04.590Z,48.50
2023-05-01T11:01:36.146Z,47.90
2023-05-01T11:04:08.102Z,48.40
2023-05-01T11:06:37.821Z,48.60
2023-05-01T11:09:41.189Z,48.30
2023-05-01T11:12:11.534Z,48.00
2023-05-01T11:15:15.068Z,48.30
2023-05-01T11:17:47.686Z,47.50
2023-05-01T11:20:50.989Z,47.80
2023-05-01T11:23:25.565Z,47.50
2023-05-01T11:26:06.243Z,47.90
2023-05-01T11:28:35.668Z,47.50
2023-05-01T11:31:07.750Z,48.00
2023-05-01T11:33:36.167Z,47.90
2023-05-01T11:36:05.184Z,47.80
2023-05-01T11:38:33.640Z,48.00
2023-05-01T11:41:04.581Z,47.80
2023-05-01T11:43:33.199Z,47.90
2023-05-01T11:46:04.740Z,47.80
2023-05-01T11:48:34.552Z,47.80
2023-05-01T11:51:13.741Z,47.50
2023-05-01T11:53:42.277Z,47.60
2023-05-01T11:56:26.559Z,47.70
2023-05-01T11:58:57.519Z,47.40
2023-05-01T12:01:36.092Z,47.60
2023-05-01T12:04:07.965Z,47.50
2023-05-01T12:06:44.077Z,47.50
2023-05-01T12:09:17.507Z,47.50
2023-05-01T12:11:47.436Z,47.60
2023-05-01T12:14:16.823Z,47.50
2023-05-01T12:16:46.481Z,47.50
2023-05-01T12:19:17.556Z,47.40
2023-05-01T12:21:46.563Z,47.10
2023-05-01T12:24:17.533Z,46.60
2023-05-01T12:26:47.094Z,46.50
2023-05-01T12:29:15.524Z,46.60
2023-05-01T12:31:49.466Z,46.60
2023-05-01T12:34:19.822Z,46.10
2023-05-01T12:36:55.329Z,46.00
2023-05-01T12:39:24.700Z,45.90
2023-05-01T12:41:54.553Z,46.10
2023-05-01T12:44:25.382Z,46.10
2023-05-01T12:47:00.461Z,46.00
2023-05-01T12:49:31.992Z,45.50
2023-05-01T12:52:03.712Z,45.70
2023-05-01T12:54:34.046Z,45.80
2023-05-01T12:57:11.777Z,45.70
2023-05-01T12:59:41.942Z,45.40
2023-05-01T13:02:12.534Z,45.70
2023-05-01T13:04:43.234Z,45.70
2023-05-01T13:07:12.972Z,45.70
2023-05-01T13:09:41.716Z,45.70
2023-05-01T13:12:10.575Z,45.60
2023-05-01T13:14:40.940Z,45.30
2023-05-01T13:17:11.762Z,45.30
2023-05-01T13:19:41.688Z,45.40
2023-05-01T13:22:10.236Z,45.30
2023-05-01T13:24:40.295Z,45.20
2023-05-01T13:27:10.461Z,45.00
2023-05-01T13:29:39.923Z,45.10
2023-05-01T13:32:13.459Z,45.20
2023-05-01T13:34:45.095Z,45.20
2023-05-01T13:37:14.542Z,45.20
2023-05-01T13:39:43.628Z,45.20
2023-05-01T13:42:13.953Z,45.00
2023-05-01T13:44:46.258Z,44.80
2023-05-01T13:47:18.047Z,44.60
2023-05-01T13:49:48.785Z,44.80
2023-05-01T13:52:19.201Z,45.00
2023-05-01T13:54:48.872Z,44.60
2023-05-01T13:57:18.099Z,44.50
2023-05-01T13:59:48.638Z,44.50
2023-05-01T14:02:22.726Z,44.60
2023-05-01T14:04:52.679Z,44.60
2023-05-01T14:07:23.478Z,44.60
2023-05-01T14:09:55.958Z,44.60
2023-05-01T14:12:29.906Z,44.40
2023-05-01T14:15:00.116Z,44.10
2023-05-01T14:17:33.626Z,44.20
2023-05-01T14:20:04.845Z,44.10
2023-05-01T14:22:43.992Z,44.10
2023-05-01T14:25:25.611Z,44.10
2023-05-01T14:27:55.130Z,44.10
2023-05-01T14:30:33.283Z,44.10
2023-05-01T14:33:03.722Z,44.10
2023-05-01T14:35:35.393Z,44.30
2023-05-01T14:38:10.850Z,44.00
2023-05-01T14:40:42.201Z,44.10
2023-05-01T14:43:12.217Z,44.10
2023-05-01T14:45:43.698Z,43.70
2023-05-01T14:48:12.961Z,43.40
2023-05-01T14:50:44.025Z,43.50
2023-05-01T14:53:13.059Z,43.20
2023-05-01T14:55:43.232Z,43.20
2023-05-01T14:58:11.791Z,43.00
2023-05-01T15:00:40.196Z,43.10
2023-05-01T15:03:08.752Z,43.10
2023-05-01T15:05:38.419Z,43.20
2023-05-01T15:08:10.199Z,43.20
2023-05-01T15:10:38.743Z,43.20
2023-05-01T15:13:07.350Z,43.20
2023-05-01T15:15:35.769Z,43.30
2023-05-01T15:18:04.812Z,43.10
2023-05-01T15:20:33.769Z,43.20
2023-05-01T15:23:02.081Z,43.20
2023-05-01T15:25:32.295Z,43.20
2023-05-01T15:28:00.687Z,43.10
2023-05-01T15:30:29.183Z,43.30
2023-05-01T15:32:57.765Z,43.60
2023-05-01T15:35:26.547Z,43.60
2023-05-01T15:37:56.504Z,43.70
2023-05-01T15:40:25.277Z,44.30
2023-05-01T15:42:55.682Z,43.80
2023-05-01T15:45:24.303Z,43.90
2023-05-01T15:47:52.666Z,43.90
2023-05-01T15:50:22.142Z,44.20
2023-05-01T15:52:51.304Z,44.60
2023-05-01T15:55:21.693Z,45.00
2023-05-01T15:57:50.093Z,45.40
2023-05-01T16:00:21.967Z,45.50
2023-05-01T16:02:50.592Z,46.00
2023-05-01T16:05:22.443Z,46.30
2023-05-01T16:07:55.078Z,46.70
2023-05-01T16:10:25.449Z,46.70
2023-05-01T16:12:54.778Z,47.10
2023-05-01T16:15:25.083Z,47.20
2023-05-01T16:17:54.993Z,47.80
2023-05-01T16:20:25.102Z,48.00
2023-05-01T16:22:53.653Z,48.40
2023-05-01T16:25:22.271Z,48.90
2023-05-01T16:27:50.819Z,49.10
2023-05-01T16:30:19.364Z,49.30
2023-05-01T16:32:49.437Z,49.50
2023-05-01T16:35:19.391Z,49.40
2023-05-01T16:37:48.010Z,49.50
2023-05-01T16:40:19.157Z,49.70
2023-05-01T16:42:52.574Z,49.80
2023-05-01T16:45:21.288Z,50.30
2023-05-01T16:47:51.706Z,50.20
2023-05-01T16:50:23.151Z,50.60
2023-05-01T16:52:51.835Z,50.80
2023-05-01T16:55:20.178Z,51.20
2023-05-01T16:57:49.194Z,51.60
2023-05-01T17:00:18.499Z,51.90
2023-05-01T17:02:49.669Z,52.20
2023-05-01T17:05:20.521Z,52.40
2023-05-01T17:07:49.201Z,52.50
2023-05-01T17:10:17.817Z,52.40
2023-05-01T17:12:46.268Z,52.30
2023-05-01T17:15:14.970Z,52.40
2023-05-01T17:17:45.391Z,52.40
2023-05-01T17:20:14.908Z,52.50
2023-05-01T17:22:45.663Z,52.40
2023-05-01T17:25:15.142Z,52.40
2023-05-01T17:27:43.688Z,52.40
2023-05-01T17:30:12.887Z,52.40
2023-05-01T17:32:41.861Z,52.40
2023-05-01T17:35:10.989Z,52.40
2023-05-01T17:37:40.735Z,52.50
2023-05-01T17:40:12.711Z,52.70
2023-05-01T17:42:41.874Z,52.90
2023-05-01T17:45:11.527Z,52.90
2023-05-01T17:47:42.936Z,53.10
2023-05-01T17:50:13.327Z,53.20
2023-05-01T17:52:43.359Z,53.40
2023-05-01T17:55:17.157Z,53.30
2023-05-01T17:57:48.146Z,53.50
2023-05-01T18:00:17.723Z,53.50
2023-05-01T18:02:47.598Z,53.50
2023-05-01T18:05:16.331Z,53.60
2023-05-01T18:07:44.745Z,53.60
2023-05-01T18:10:15.176Z,54.20
2023-05-01T18:12:45.738Z,53.40
2023-05-01T18:15:19.365Z,53.30
2023-05-01T18:17:51.284Z,53.40
2023-05-01T18:20:19.782Z,53.40
2023-05-01T18:22:48.405Z,53.50
2023-05-01T18:25:20.054Z,53.70
2023-05-01T18:27:49.171Z,54.00
2023-05-01T18:30:18.006Z,54.10
2023-05-01T18:32:48.833Z,54.10
2023-05-01T18:35:19.076Z,54.10
2023-05-01T18:37:47.783Z,54.10
2023-05-01T18:40:18.081Z,54.10
2023-05-01T18:42:46.949Z,54.20
2023-05-01T18:45:15.421Z,54.10
2023-05-01T18:47:43.901Z,54.10
2023-05-01T18:50:13.268Z,54.30
2023-05-01T18:52:43.423Z,54.30
2023-05-01T18:55:12.397Z,54.30
2023-05-01T18:57:43.720Z,54.20
2023-05-01T19:00:17.588Z,54.30
2023-05-01T19:02:51.518Z,54.50
2023-05-01T19:05:22.770Z,54.50
2023-05-01T19:07:51.293Z,54.40
2023-05-01T19:10:19.897Z,54.40
2023-05-01T19:12:50.923Z,54.30
2023-05-01T19:15:19.625Z,54.20
2023-05-01T19:17:48.158Z,54.00
2023-05-01T19:20:17.083Z,53.90
2023-05-01T19:22:45.513Z,53.90
2023-05-01T19:25:14.182Z,53.90
2023-05-01T19:27:43.034Z,53.80
2023-05-01T19:30:13.606Z,53.70
2023-05-01T19:32:42.008Z,53.70
2023-05-01T19:35:11.726Z,53.60
2023-05-01T19:37:40.802Z,53.60
2023-05-01T19:40:10.607Z,53.70
2023-05-01T19:42:39.075Z,53.80
2023-05-01T19:45:09.099Z,53.70
2023-05-01T19:47:39.088Z,53.70
2023-05-01T19:50:09.446Z,53.70
2023-05-01T19:52:38.134Z,53.70
2023-05-01T19:55:08.294Z,53.70
2023-05-01T19:57:36.681Z,53.90
2023-05-01T20:00:07.015Z,53.90
2023-05-01T20:02:39.899Z,53.90
2023-05-01T20:05:09.335Z,53.90
2023-05-01T20:07:38.053Z,54.00
2023-05-01T20:10:07.489Z,54.10
2023-05-01T20:12:35.872Z,54.10
2023-05-01T20:15:04.995Z,54.10
2023-05-01T20:17:34.149Z,54.10
2023-05-01T20:20:04.150Z,54.20
2023-05-01T20:22:32.632Z,54.40
2023-05-01T20:25:01.093Z,54.30
2023-05-01T20:27:29.559Z,54.40
2023-05-01T20:29:58.225Z,54.40
2023-05-01T20:32:26.767Z,54.50
2023-05-01T20:34:56.034Z,54.50
2023-05-01T20:37:25.848Z,54.50
2023-05-01T20:39:54.271Z,54.50
2023-05-01T20:42:22.788Z,54.40
2023-05-01T20:44:51.170Z,54.40
2023-05-01T20:47:19.837Z,54.50
2023-05-01T20:49:49.078Z,54.50
2023-05-01T20:52:17.429Z,54.40
2023-05-01T20:54:47.268Z,54.40
2023-05-01T20:57:17.608Z,54.50
2023-05-01T20:59:50.942Z,54.50
2023-05-01T21:02:19.307Z,54.60
2023-05-01T21:04:47.637Z,54.60
2023-05-01T21:07:16.658Z,54.60
2023-05-01T21:09:47.221Z,54.70
2023-05-01T21:12:16.267Z,54.90
2023-05-01T21:14:44.627Z,54.80
2023-05-01T21:17:13.632Z,54.90
2023-05-01T21:19:46.569Z,55.00
2023-05-01T21:22:17.771Z,55.10
2023-05-01T21:24:54.447Z,55.10
2023-05-01T21:27:24.195Z,55.20
2023-05-01T21:29:57.704Z,55.10
2023-05-01T21:32:32.468Z,55.30
2023-05-01T21:35:01.432Z,55.30
2023-05-01T21:37:30.143Z,55.20
2023-05-01T21:40:02.246Z,55.20
2023-05-01T21:42:32.565Z,55.20
2023-05-01T21:45:01.093Z,55.10
2023-05-01T21:47:29.921Z,55.10
2023-05-01T21:49:59.304Z,55.70
2023-05-01T21:52:30.346Z,55.10
2023-05-01T21:55:00.184Z,55.10
2023-05-01T21:57:30.577Z,55.10
2023-05-01T22:00:01.230Z,55.10
2023-05-01T22:02:38.580Z,55.10
2023-05-01T22:05:07.896Z,55.80
2023-05-01T22:07:38.426Z,55.10
2023-05-01T22:10:12.009Z,55.20
2023-05-01T22:12:41.403Z,55.30
2023-05-01T22:15:11.893Z,55.30
2023-05-01T22:17:41.460Z,55.40
2023-05-01T22:20:10.722Z,55.50
2023-05-01T22:22:42.334Z,55.50
2023-05-01T22:25:13.147Z,55.50
2023-05-01T22:27:42.080Z,55.40
2023-05-01T22:30:12.289Z,55.40
2023-05-01T22:32:40.959Z,55.40
2023-05-01T22:35:10.260Z,55.40
2023-05-01T22:37:38.635Z,55.40
2023-05-01T22:40:09.256Z,55.40
2023-05-01T22:42:39.663Z,55.30
2023-05-01T22:45:08.956Z,55.30
2023-05-01T22:47:37.641Z,55.30
2023-05-01T22:50:07.081Z,55.30
2023-05-01T22:52:35.419Z,55.40
2023-05-01T22:55:03.838Z,55.40
2023-05-01T22:57:32.872Z,55.40
2023-05-01T23:00:02.939Z,56.10
2023-05-01T23:02:31.488Z,55.50
2023-05-01T23:05:00.193Z,55.40
2023-05-01T23:07:28.775Z,55.40
2023-05-01T23:09:57.493Z,55.40
2023-05-01T23:12:27.670Z,55.30
2023-05-01T23:14:56.653Z,55.10
2023-05-01T23:17:35.146Z,55.10
2023-05-01T23:20:04.902Z,55.10
2023-05-01T23:22:38.201Z,55.20
2023-05-01T23:25:08.162Z,55.10
2023-05-01T23:27:42.826Z,55.10
2023-05-01T23:30:13.098Z,55.10
2023-05-01T23:32:43.860Z,55.10
2023-05-01T23:35:15.817Z,55.30
2023-05-01T23:37:44.479Z,55.30
2023-05-01T23:40:13.187Z,55.30
2023-05-01T23:42:41.920Z,55.40
2023-05-01T23:45:10.776Z,55.50
2023-05-01T23:47:39.881Z,55.70
2023-05-01T23:50:11.340Z,55.60
2023-05-01T23:52:39.796Z,55.80
2023-05-01T23:55:08.905Z,55.70
2023-05-01T23:57:37.362Z,55.70
